KFAT/FAT METAR and TAF weather

Enter ICAO airport designator
Station Type Date Time Source
KFAT METAR 2019/12/08 06:53 UTC NOAA

KFAT 080653Z 12009KT 10SM FEW050 BKN120 14/12 A3003 RMK AO2 SLP168 T01390117 $


Station Type Date Time Source
KFAT Decoded METAR 2019/12/08 06:53 UTC NOAA

FRESNO AIR TERMINAL, CA, United States (KFAT) 36-47N 119-43W 104M
Dec 08, 2019 - 01:53 AM EST / 2019.12.08 0653 UTC
Wind: from the ESE (120 degrees) at 10 MPH (9 KT):0
Visibility: 10 mile(s):0
Sky conditions: mostly cloudy
Temperature: 57.0 F (13.9 C)
Dew Point: 53.1 F (11.7 C)
Relative Humidity: 86%
Pressure (altimeter): 30.03 in. Hg (1016 hPa)
ob: KFAT 080653Z 12009KT 10SM FEW050 BKN120 14/12 A3003 RMK AO2 SLP168 T01390117
cycle: 7

Station Type Date Time Source
KFAT TAF 2019/12/08 06:42 UTC NOAA

TAF KFAT 080540Z 0806/0906 11009KT 6SM -SHRA BKN030 OVC070
FM080800 12010KT 4SM -RA BR BKN020 OVC050
FM081800 13008KT 6SM -SHRA BKN050 PROB30 0818/0824 4SM TSRA OVC040CB
FM090100 32006KT P6SM BKN200

Example: see airport list